Time;durP1;ratioP1;P1;durP2;ratioP2;P2;SDS_P1;SDS_P2;PMS_P1;PMS_P2;Temp;Humidity;BMP_temperature;BMP_pressure;BME280_temperature;BME280_humidity;BME280_pressure;Samples;Min_cycle;Max_cycle;Signal;HPM_P1;HPM_P2
2022/10/07 00:00:45;;;;;;;;;;;;;;;;;;5132675;27;2308;-57
2022/10/07 00:03:13;;;;;;;;;;;;;;;;;;5132724;27;1672;-58
2022/10/07 00:05:40;;;;;;;;;;;;;;;;;;5132496;27;2111;-58
2022/10/07 00:08:08;;;;;;;;;;;;;;;;;;5132569;27;1975;-57
2022/10/07 00:10:37;;;;;;;;;;;;;;;;;;5132495;27;2182;-58
2022/10/07 00:13:04;;;;;;;;;;;;;;;;;;5132588;27;2204;-58
2022/10/07 00:15:32;;;;;;;;;;;;;;;;;;5132613;27;1670;-58
2022/10/07 00:17:59;;;;;;;;;;;;;;;;;;5132411;27;2091;-58
2022/10/07 00:20:27;;;;;;;;;;;;;;;;;;5130482;27;2014;-57
2022/10/07 00:22:58;;;;;;;;;;;;;;;;;;5132217;27;1663;-55
2022/10/07 00:25:25;;;;;;;;;;;;;;;;;;5132511;27;1986;-57
2022/10/07 00:27:53;;;;;;;;;;;;;;;;;;5114503;27;1902;-58
2022/10/07 00:30:20;;;;;;;;;;;;;;;;;;5114261;27;2291;-56
2022/10/07 00:32:48;;;;;;;;;;;;;;;;;;5132086;27;1843;-58
2022/10/07 00:35:15;;;;;;;;;;;;;;;;;;5132089;27;1845;-58
2022/10/07 00:37:43;;;;;;;;;;;;;;;;;;5132129;27;1932;-58
2022/10/07 00:40:14;;;;;;;;;;;;;;;;;;5114039;27;1517;-57
2022/10/07 00:42:41;;;;;;;;;;;;;;;;;;5102846;28;2177;-57
2022/10/07 00:45:13;;;;;;;;;;;;;;;;;;5111561;28;1742;-53
2022/10/07 00:47:43;;;;;;;;;;;;;;;;;;5093067;28;2000;-57
2022/10/07 00:50:15;;;;;;;;;;;;;;;;;;5111655;28;1903;-58
2022/10/07 00:52:46;;;;;;;;;;;;;;;;;;5110910;28;2014;-58
2022/10/07 00:55:18;;;;;;;;;;;;;;;;;;5093194;28;2189;-57
2022/10/07 00:57:47;;;;;;;;;;;;;;;;;;5110951;28;1406;-58
2022/10/07 01:00:14;;;;;;;;;;;;;;;;;;5114552;28;1931;-58
2022/10/07 01:02:42;;;;;;;;;;;;;;;;;;5115784;28;1478;-57
2022/10/07 01:05:13;;;;;;;;;;;;;;;;;;5097253;28;1864;-58
2022/10/07 01:07:42;;;;;;;;;;;;;;;;;;5115237;28;2160;-57
2022/10/07 01:10:10;;;;;;;;;;;;;;;;;;5115340;28;1756;-57
2022/10/07 01:12:56;;;;;;;;;;;;;;;;;;5097128;28;2210;-56
2022/10/07 01:15:26;;;;;;;;;;;;;;;;;;5097030;28;2013;-54
2022/10/07 01:17:56;;;;;;;;;;;;;;;;;;5115542;28;2047;-47
2022/10/07 01:20:23;;;;;;;;;;;;;;;;;;5115600;28;1960;-56
2022/10/07 01:23:09;;;;;;;;;;;;;;;;;;5096990;28;2315;-57
2022/10/07 01:25:36;;;;;;;;;;;;;;;;;;5115228;28;1941;-55
2022/10/07 01:28:06;;;;;;;;;;;;;;;;;;5096697;28;2013;-57
2022/10/07 01:30:37;;;;;;;;;;;;;;;;;;5096886;28;1839;-58
2022/10/07 01:33:10;;;;;;;;;;;;;;;;;;5114856;28;2033;-57
2022/10/07 01:35:38;;;;;;;;;;;;;;;;;;5115085;28;1935;-58
2022/10/07 01:38:08;;;;;;;;;;;;;;;;;;5114984;28;1793;-58
2022/10/07 01:40:41;;;;;;;;;;;;;;;;;;5096697;28;1682;-58
2022/10/07 01:43:11;;;;;;;;;;;;;;;;;;5102353;28;1981;-58
2022/10/07 01:45:39;;;;;;;;;;;;;;;;;;5114773;28;2025;-55
2022/10/07 01:48:06;;;;;;;;;;;;;;;;;;5114633;28;1982;-58
2022/10/07 01:50:34;;;;;;;;;;;;;;;;;;5114828;28;2114;-57
2022/10/07 01:53:11;;;;;;;;;;;;;;;;;;5089419;28;1729;-55
2022/10/07 01:55:55;;;;;;;;;;;;;;;;;;5073972;28;2046;-53
2022/10/07 01:58:31;;;;;;;;;;;;;;;;;;5073947;28;2102;-58
2022/10/07 02:01:07;;;;;;;;;;;;;;;;;;5073752;28;2038;-58
2022/10/07 02:03:45;;;;;;;;;;;;;;;;;;5073702;28;1775;-57
2022/10/07 02:06:36;;;;;;;;;;;;;;;;;;5073799;28;1853;-54
2022/10/07 02:09:06;;;;;;;;;;;;;;;;;;5072407;28;1975;-57
2022/10/07 02:11:36;;;;;;;;;;;;;;;;;;5072934;28;1758;-58
2022/10/07 02:14:09;;;;;;;;;;;;;;;;;;5072329;28;2244;-58
2022/10/07 02:16:37;;;;;;;;;;;;;;;;;;5072274;28;2093;-57
2022/10/07 02:19:14;;;;;;;;;;;;;;;;;;5073342;28;2087;-57
2022/10/07 02:21:44;;;;;;;;;;;;;;;;;;5073641;28;1801;-58
2022/10/07 02:24:13;;;;;;;;;;;;;;;;;;5088902;28;2164;-59
2022/10/07 02:26:42;;;;;;;;;;;;;;;;;;5055879;28;2171;-57
2022/10/07 02:29:10;;;;;;;;;;;;;;;;;;5071986;28;1979;-56
2022/10/07 02:31:40;;;;;;;;;;;;;;;;;;5071897;28;1646;-56
2022/10/07 02:34:10;;;;;;;;;;;;;;;;;;5073367;28;2239;-59
2022/10/07 02:36:46;;;;;;;;;;;;;;;;;;5071962;28;2039;-58
2022/10/07 02:39:14;;;;;;;;;;;;;;;;;;5073131;28;2128;-58
2022/10/07 02:41:45;;;;;;;;;;;;;;;;;;5075481;28;1912;-57
2022/10/07 02:44:29;;;;;;;;;;;;;;;;;;5108927;28;1887;-58
2022/10/07 02:47:02;;;;;;;;;;;;;;;;;;5108694;28;2033;-58
2022/10/07 02:49:32;;;;;;;;;;;;;;;;;;5080019;28;1975;-56
2022/10/07 02:52:19;;;;;;;;;;;;;;;;;;5072959;28;1946;-57
2022/10/07 02:54:50;;;;;;;;;;;;;;;;;;5071597;28;2561;-55
2022/10/07 02:57:19;;;;;;;;;;;;;;;;;;5072939;28;2235;-58
2022/10/07 02:59:50;;;;;;;;;;;;;;;;;;5070997;28;1769;-57
2022/10/07 03:02:30;;;;;;;;;;;;;;;;;;5071182;28;1915;-58
2022/10/07 03:04:57;;;;;;;;;;;;;;;;;;5072509;28;1920;-49
2022/10/07 03:07:26;;;;;;;;;;;;;;;;;;5071117;28;2346;-57
2022/10/07 03:09:54;;;;;;;;;;;;;;;;;;5072889;28;2145;-51
2022/10/07 03:12:21;;;;;;;;;;;;;;;;;;5074828;28;2037;-57
2022/10/07 03:14:49;;;;;;;;;;;;;;;;;;5091361;28;1887;-58
2022/10/07 03:17:19;;;;;;;;;;;;;;;;;;5091176;28;1851;-59
2022/10/07 03:19:48;;;;;;;;;;;;;;;;;;5092533;28;1932;-57
2022/10/07 03:22:15;;;;;;;;;;;;;;;;;;5090670;28;1587;-58
2022/10/07 03:24:43;;;;;;;;;;;;;;;;;;5092291;28;1750;-58
2022/10/07 03:27:10;;;;;;;;;;;;;;;;;;5091657;28;2157;-57
2022/10/07 03:29:39;;;;;;;;;;;;;;;;;;5092213;28;2039;-56
2022/10/07 03:32:07;;;;;;;;;;;;;;;;;;5092157;28;2054;-57
2022/10/07 03:34:36;;;;;;;;;;;;;;;;;;5091074;28;1785;-57
2022/10/07 03:37:03;;;;;;;;;;;;;;;;;;5092366;28;1901;-56
2022/10/07 03:39:31;;;;;;;;;;;;;;;;;;5090590;28;1893;-56
2022/10/07 03:41:59;;;;;;;;;;;;;;;;;;5091903;28;1976;-56
2022/10/07 03:44:27;;;;;;;;;;;;;;;;;;5091918;28;1696;-57
2022/10/07 03:46:55;;;;;;;;;;;;;;;;;;5090672;28;1875;-54
2022/10/07 03:49:25;;;;;;;;;;;;;;;;;;5091744;28;2322;-54
2022/10/07 03:51:54;;;;;;;;;;;;;;;;;;5090896;28;1990;-57
2022/10/07 03:54:21;;;;;;;;;;;;;;;;;;5090458;28;2193;-52
2022/10/07 03:56:50;;;;;;;;;;;;;;;;;;5091563;28;2012;-57
2022/10/07 03:59:17;;;;;;;;;;;;;;;;;;5090455;28;1836;-56
2022/10/07 04:01:46;;;;;;;;;;;;;;;;;;5090308;28;2033;-51
2022/10/07 04:04:13;;;;;;;;;;;;;;;;;;5090379;28;1283;-57
2022/10/07 04:06:43;;;;;;;;;;;;;;;;;;5091496;28;2012;-49
2022/10/07 04:09:13;;;;;;;;;;;;;;;;;;5090276;28;2161;-49
2022/10/07 04:11:40;;;;;;;;;;;;;;;;;;5090071;28;1983;-56
2022/10/07 04:14:08;;;;;;;;;;;;;;;;;;5091663;28;2003;-53
2022/10/07 04:16:37;;;;;;;;;;;;;;;;;;5090297;28;1783;-50
2022/10/07 04:19:07;;;;;;;;;;;;;;;;;;5091320;28;1889;-58
2022/10/07 04:21:34;;;;;;;;;;;;;;;;;;5090184;28;1934;-52
2022/10/07 04:24:02;;;;;;;;;;;;;;;;;;5089855;28;2359;-51
2022/10/07 04:26:30;;;;;;;;;;;;;;;;;;5090120;28;2266;-56
2022/10/07 04:28:58;;;;;;;;;;;;;;;;;;5091272;28;2073;-49
2022/10/07 04:31:27;;;;;;;;;;;;;;;;;;5090181;28;2377;-49
2022/10/07 04:34:01;;;;;;;;;;;;;;;;;;5089741;28;1891;-51
2022/10/07 04:36:32;;;;;;;;;;;;;;;;;;5091004;28;2364;-48
2022/10/07 04:39:09;;;;;;;;;;;;;;;;;;5089844;28;1484;-48
2022/10/07 04:41:41;;;;;;;;;;;;;;;;;;5088695;28;1867;-53
2022/10/07 04:44:14;;;;;;;;;;;;;;;;;;5069670;28;1790;-53
2022/10/07 04:46:57;;;;;;;;;;;;;;;;;;5069657;28;1786;-58
2022/10/07 04:49:28;;;;;;;;;;;;;;;;;;5070701;28;1940;-46
2022/10/07 04:51:58;;;;;;;;;;;;;;;;;;5070752;28;1974;-52
2022/10/07 04:54:30;;;;;;;;;;;;;;;;;;5069478;28;1321;-52
2022/10/07 04:56:58;;;;;;;;;;;;;;;;;;5069555;28;2000;-51
2022/10/07 04:59:27;;;;;;;;;;;;;;;;;;5069457;28;1679;-52
2022/10/07 05:01:57;;;;;;;;;;;;;;;;;;5069770;28;2037;-58
2022/10/07 05:04:25;;;;;;;;;;;;;;;;;;5071106;28;1956;-53
2022/10/07 05:06:53;;;;;;;;;;;;;;;;;;5069519;28;1675;-55
2022/10/07 05:09:20;;;;;;;;;;;;;;;;;;5068989;28;1953;-49
2022/10/07 05:11:50;;;;;;;;;;;;;;;;;;5069076;28;1887;-53
2022/10/07 05:14:20;;;;;;;;;;;;;;;;;;5070642;28;2028;-55
2022/10/07 05:16:50;;;;;;;;;;;;;;;;;;5069467;28;1984;-51
2022/10/07 05:19:20;;;;;;;;;;;;;;;;;;5069343;28;1617;-54
2022/10/07 05:21:48;;;;;;;;;;;;;;;;;;5070517;28;1846;-54
2022/10/07 05:24:15;;;;;;;;;;;;;;;;;;5069029;28;1815;-49
2022/10/07 05:26:43;;;;;;;;;;;;;;;;;;5069072;28;1619;-58
2022/10/07 05:29:10;;;;;;;;;;;;;;;;;;5070648;28;2160;-53
2022/10/07 05:31:44;;;;;;;;;;;;;;;;;;5079650;28;1771;-49
2022/10/07 05:34:15;;;;;;;;;;;;;;;;;;5089306;28;1781;-48
2022/10/07 05:36:42;;;;;;;;;;;;;;;;;;5089356;28;1967;-57
2022/10/07 05:39:11;;;;;;;;;;;;;;;;;;5089038;28;2038;-51
2022/10/07 05:41:46;;;;;;;;;;;;;;;;;;5085974;28;1817;-53
2022/10/07 05:44:16;;;;;;;;;;;;;;;;;;5070422;28;1857;-57
2022/10/07 05:46:45;;;;;;;;;;;;;;;;;;5071027;28;1859;-58
2022/10/07 05:49:14;;;;;;;;;;;;;;;;;;5072730;28;2082;-57
2022/10/07 05:51:42;;;;;;;;;;;;;;;;;;5072279;28;1947;-56
2022/10/07 05:54:10;;;;;;;;;;;;;;;;;;5090613;28;1635;-54
2022/10/07 05:56:41;;;;;;;;;;;;;;;;;;5094369;28;2006;-58
2022/10/07 05:59:09;;;;;;;;;;;;;;;;;;5092839;28;2158;-53
2022/10/07 06:01:41;;;;;;;;;;;;;;;;;;5091981;28;2280;-51
2022/10/07 06:04:14;;;;;;;;;;;;;;;;;;5092587;28;1875;-55
2022/10/07 06:06:45;;;;;;;;;;;;;;;;;;5092332;28;2578;-58
2022/10/07 06:14:53;;;;;;;;;;;;;;;;;;5092440;28;1654;-49
2022/10/07 06:17:21;;;;;;;;;;;;;;;;;;5092457;28;2196;-58
2022/10/07 06:19:51;;;;;;;;;;;;;;;;;;5091854;28;1806;-54
2022/10/07 06:22:21;;;;;;;;;;;;;;;;;;5093694;28;1642;-58
2022/10/07 06:24:50;;;;;;;;;;;;;;;;;;5093560;28;1756;-52
2022/10/07 06:27:18;;;;;;;;;;;;;;;;;;5093487;28;1899;-51
2022/10/07 06:29:45;;;;;;;;;;;;;;;;;;5091989;28;2051;-51
2022/10/07 06:32:13;;;;;;;;;;;;;;;;;;5092098;28;1424;-57
2022/10/07 06:34:44;;;;;;;;;;;;;;;;;;5092007;28;1970;-52
2022/10/07 06:37:12;;;;;;;;;;;;;;;;;;5091996;28;1993;-50
2022/10/07 06:39:40;;;;;;;;;;;;;;;;;;5091765;28;2153;-57
2022/10/07 06:42:08;;;;;;;;;;;;;;;;;;5091638;28;2001;-52
2022/10/07 06:44:57;;;;;;;;;;;;;;;;;;5091846;28;1492;-50
2022/10/07 06:47:24;;;;;;;;;;;;;;;;;;5093184;28;1912;-52
2022/10/07 06:49:51;;;;;;;;;;;;;;;;;;5092613;28;2340;-53
2022/10/07 06:52:19;;;;;;;;;;;;;;;;;;5098323;27;1956;-50
2022/10/07 06:54:46;;;;;;;;;;;;;;;;;;5115602;27;1852;-50
2022/10/07 06:57:15;;;;;;;;;;;;;;;;;;5115134;27;1847;-59
2022/10/07 07:00:04;;;;;;;;;;;;;;;;;;5115602;27;1943;-58
2022/10/07 07:02:33;;;;;;;;;;;;;;;;;;5115445;27;1776;-52
2022/10/07 07:05:04;;;;;;;;;;;;;;;;;;5115583;27;2131;-56
2022/10/07 07:07:31;;;;;;;;;;;;;;;;;;5133714;27;1771;-54
2022/10/07 07:10:00;;;;;;;;;;;;;;;;;;5115426;27;2306;-53
2022/10/07 07:12:29;;;;;;;;;;;;;;;;;;5115199;27;1869;-57
2022/10/07 07:14:59;;;;;;;;;;;;;;;;;;5114974;27;1941;-53
2022/10/07 07:17:26;;;;;;;;;;;;;;;;;;5133412;27;2175;-52
2022/10/07 07:19:55;;;;;;;;;;;;;;;;;;5114934;27;1871;-57
2022/10/07 07:22:23;;;;;;;;;;;;;;;;;;5114956;27;1679;-57
2022/10/07 07:24:50;;;;;;;;;;;;;;;;;;5133343;27;1951;-49
2022/10/07 07:27:18;;;;;;;;;;;;;;;;;;5114829;27;1992;-53
2022/10/07 07:29:46;;;;;;;;;;;;;;;;;;5133082;27;1976;-55
2022/10/07 07:32:14;;;;;;;;;;;;;;;;;;5098098;27;1796;-55
2022/10/07 07:34:42;;;;;;;;;;;;;;;;;;5114793;27;1670;-54
2022/10/07 07:37:16;;;;;;;;;;;;;;;;;;5133128;27;2086;-53
2022/10/07 07:39:47;;;;;;;;;;;;;;;;;;5114433;27;1646;-55
2022/10/07 07:42:16;;;;;;;;;;;;;;;;;;5107119;28;2109;-55
2022/10/07 07:44:44;;;;;;;;;;;;;;;;;;5094061;28;1778;-49
2022/10/07 07:47:15;;;;;;;;;;;;;;;;;;5112418;28;2089;-58
2022/10/07 07:49:44;;;;;;;;;;;;;;;;;;5093945;28;2015;-52
2022/10/07 07:52:19;;;;;;;;;;;;;;;;;;5093476;28;1763;-55
2022/10/07 07:54:50;;;;;;;;;;;;;;;;;;5094019;28;2156;-57
2022/10/07 07:57:18;;;;;;;;;;;;;;;;;;5093889;28;1881;-56
2022/10/07 07:59:45;;;;;;;;;;;;;;;;;;5112030;28;2003;-58
2022/10/07 08:02:15;;;;;;;;;;;;;;;;;;5093892;28;1747;-56
2022/10/07 08:04:47;;;;;;;;;;;;;;;;;;5093610;28;2503;-53
2022/10/07 08:07:14;;;;;;;;;;;;;;;;;;5093808;28;1911;-52
2022/10/07 08:09:44;;;;;;;;;;;;;;;;;;5092942;28;2145;-57
2022/10/07 08:12:13;;;;;;;;;;;;;;;;;;5111965;28;1926;-59
2022/10/07 08:14:42;;;;;;;;;;;;;;;;;;5111878;28;2260;-58
2022/10/07 08:17:12;;;;;;;;;;;;;;;;;;5111927;28;1808;-56
2022/10/07 08:19:40;;;;;;;;;;;;;;;;;;5093374;28;1882;-59
2022/10/07 08:22:09;;;;;;;;;;;;;;;;;;5093374;28;1394;-49
2022/10/07 08:24:36;;;;;;;;;;;;;;;;;;5093569;28;1988;-54
2022/10/07 08:27:04;;;;;;;;;;;;;;;;;;5093492;28;1940;-55
2022/10/07 08:29:33;;;;;;;;;;;;;;;;;;5111291;28;2137;-53
2022/10/07 08:32:00;;;;;;;;;;;;;;;;;;5093189;28;2072;-58
2022/10/07 08:34:28;;;;;;;;;;;;;;;;;;5111748;28;1622;-56
2022/10/07 08:36:56;;;;;;;;;;;;;;;;;;5111443;28;1848;-59
2022/10/07 08:39:25;;;;;;;;;;;;;;;;;;5111713;28;2086;-56
2022/10/07 08:42:04;;;;;;;;;;;;;;;;;;5115478;27;1813;-54
2022/10/07 08:44:35;;;;;;;;;;;;;;;;;;5131924;27;1746;-58
2022/10/07 08:47:21;;;;;;;;;;;;;;;;;;5131822;27;1845;-58
2022/10/07 08:49:48;;;;;;;;;;;;;;;;;;5131644;27;1999;-59
2022/10/07 08:52:27;;;;;;;;;;;;;;;;;;5131757;28;1580;-57
2022/10/07 08:54:55;;;;;;;;;;;;;;;;;;5131754;28;1698;-57
2022/10/07 08:57:46;;;;;;;;;;;;;;;;;;5131892;28;2115;-55
2022/10/07 09:00:16;;;;;;;;;;;;;;;;;;5119331;28;2475;-54
2022/10/07 09:03:08;;;;;;;;;;;;;;;;;;5131784;28;2140;-52
2022/10/07 09:05:39;;;;;;;;;;;;;;;;;;5131797;28;1736;-49
2022/10/07 09:08:12;;;;;;;;;;;;;;;;;;5131929;28;1956;-52
2022/10/07 09:10:43;;;;;;;;;;;;;;;;;;5131834;28;1910;-55
2022/10/07 09:13:12;;;;;;;;;;;;;;;;;;5132040;28;1708;-58
2022/10/07 09:15:59;;;;;;;;;;;;;;;;;;5113013;28;1746;-50
2022/10/07 09:18:31;;;;;;;;;;;;;;;;;;5131714;28;2036;-57
2022/10/07 09:20:58;;;;;;;;;;;;;;;;;;5134152;27;1851;-55
2022/10/07 09:23:30;;;;;;;;;;;;;;;;;;5135568;27;2153;-57
2022/10/07 09:25:57;;;;;;;;;;;;;;;;;;5135812;27;1853;-54
2022/10/07 09:28:31;;;;;;;;;;;;;;;;;;5135385;27;2032;-58
2022/10/07 09:31:01;;;;;;;;;;;;;;;;;;5135498;27;1976;-50
2022/10/07 09:33:29;;;;;;;;;;;;;;;;;;5135315;27;1879;-57
2022/10/07 09:36:02;;;;;;;;;;;;;;;;;;5117049;27;2158;-57
2022/10/07 09:38:40;;;;;;;;;;;;;;;;;;5135352;27;1888;-57
2022/10/07 09:41:15;;;;;;;;;;;;;;;;;;5135611;27;1868;-52
2022/10/07 09:44:03;;;;;;;;;;;;;;;;;;5115611;27;2066;-48
2022/10/07 09:46:33;;;;;;;;;;;;;;;;;;5097973;28;2127;-58
2022/10/07 09:49:04;;;;;;;;;;;;;;;;;;5096347;28;2154;-56
2022/10/07 09:51:34;;;;;;;;;;;;;;;;;;5114610;28;1597;-59
2022/10/07 09:54:04;;;;;;;;;;;;;;;;;;5114354;28;2157;-55
2022/10/07 09:56:39;;;;;;;;;;;;;;;;;;5096678;28;2121;-55
2022/10/07 09:59:15;;;;;;;;;;;;;;;;;;5114379;28;2129;-51
2022/10/07 10:01:49;;;;;;;;;;;;;;;;;;5114605;28;2099;-57
2022/10/07 10:04:18;;;;;;;;;;;;;;;;;;5114516;28;1876;-57
2022/10/07 10:06:48;;;;;;;;;;;;;;;;;;5114461;28;1969;-58
2022/10/07 10:09:21;;;;;;;;;;;;;;;;;;5114295;28;1973;-57
2022/10/07 10:12:04;;;;;;;;;;;;;;;;;;5114243;28;2014;-58
2022/10/07 10:14:39;;;;;;;;;;;;;;;;;;5114200;28;2023;-51
2022/10/07 10:17:20;;;;;;;;;;;;;;;;;;5114278;28;2376;-58
2022/10/07 10:19:53;;;;;;;;;;;;;;;;;;5114009;28;1944;-55
2022/10/07 10:22:28;;;;;;;;;;;;;;;;;;5113873;28;1494;-57
2022/10/07 10:27:49;;;;;;;;;;;;;;;;;;5114176;28;1600;-51
2022/10/07 10:30:21;;;;;;;;;;;;;;;;;;5113909;28;2263;-53
2022/10/07 10:32:56;;;;;;;;;;;;;;;;;;5094566;28;1850;-58
2022/10/07 10:35:26;;;;;;;;;;;;;;;;;;5113925;28;2015;-55
2022/10/07 10:38:07;;;;;;;;;;;;;;;;;;5113600;28;1760;-54
2022/10/07 10:40:37;;;;;;;;;;;;;;;;;;5113665;28;1747;-58
2022/10/07 10:43:10;;;;;;;;;;;;;;;;;;5127734;27;1860;-53
2022/10/07 10:45:48;;;;;;;;;;;;;;;;;;5134228;27;1904;-58
2022/10/07 10:48:16;;;;;;;;;;;;;;;;;;5126009;27;1700;-58
2022/10/07 10:50:52;;;;;;;;;;;;;;;;;;5113376;28;1973;-57
2022/10/07 10:53:33;;;;;;;;;;;;;;;;;;5113161;28;1882;-54
2022/10/07 10:56:03;;;;;;;;;;;;;;;;;;5113331;28;1648;-50
2022/10/07 10:58:52;;;;;;;;;;;;;;;;;;5113474;28;2008;-58
2022/10/07 11:01:27;;;;;;;;;;;;;;;;;;5113456;28;1485;-52
2022/10/07 11:04:00;;;;;;;;;;;;;;;;;;5113299;28;1926;-54
2022/10/07 11:06:30;;;;;;;;;;;;;;;;;;5113438;28;1620;-57
2022/10/07 11:08:58;;;;;;;;;;;;;;;;;;5113002;28;2006;-55
2022/10/07 11:11:26;;;;;;;;;;;;;;;;;;5112937;28;1974;-58
2022/10/07 11:14:04;;;;;;;;;;;;;;;;;;5113075;28;1834;-54
2022/10/07 11:16:39;;;;;;;;;;;;;;;;;;5113126;28;1991;-54
2022/10/07 11:19:22;;;;;;;;;;;;;;;;;;5113094;28;2153;-57
2022/10/07 11:21:50;;;;;;;;;;;;;;;;;;5113109;28;1675;-51
2022/10/07 11:24:26;;;;;;;;;;;;;;;;;;5112865;28;1971;-47
2022/10/07 11:27:09;;;;;;;;;;;;;;;;;;5112816;28;2003;-52
2022/10/07 11:29:47;;;;;;;;;;;;;;;;;;5112599;28;1928;-58
2022/10/07 11:32:20;;;;;;;;;;;;;;;;;;5112956;28;1415;-54
2022/10/07 11:34:52;;;;;;;;;;;;;;;;;;5112633;28;2181;-51
2022/10/07 11:37:39;;;;;;;;;;;;;;;;;;5112499;28;1990;-51
2022/10/07 11:40:07;;;;;;;;;;;;;;;;;;5112693;28;1985;-55
2022/10/07 11:42:41;;;;;;;;;;;;;;;;;;5122603;27;1686;-60
2022/10/07 11:45:39;;;;;;;;;;;;;;;;;;5132271;27;1891;-51
2022/10/07 11:48:10;;;;;;;;;;;;;;;;;;5111908;27;2045;-57
2022/10/07 11:50:39;;;;;;;;;;;;;;;;;;5133050;27;1967;-58
2022/10/07 11:53:10;;;;;;;;;;;;;;;;;;5114286;27;2439;-54
2022/10/07 11:55:46;;;;;;;;;;;;;;;;;;5132951;27;2038;-48
2022/10/07 11:58:25;;;;;;;;;;;;;;;;;;5132847;27;2119;-58
2022/10/07 12:01:11;;;;;;;;;;;;;;;;;;5132934;27;1720;-57
2022/10/07 12:03:38;;;;;;;;;;;;;;;;;;5132700;27;1883;-58
2022/10/07 12:06:10;;;;;;;;;;;;;;;;;;5132886;27;2281;-58
2022/10/07 12:08:40;;;;;;;;;;;;;;;;;;5132483;27;2113;-59
2022/10/07 12:11:14;;;;;;;;;;;;;;;;;;5132571;27;2124;-57
2022/10/07 12:13:44;;;;;;;;;;;;;;;;;;5132539;27;1962;-50
2022/10/07 12:16:26;;;;;;;;;;;;;;;;;;5132629;27;2005;-54
2022/10/07 12:19:06;;;;;;;;;;;;;;;;;;5132569;27;2020;-55
2022/10/07 12:21:52;;;;;;;;;;;;;;;;;;5132284;27;1659;-48
2022/10/07 12:24:20;;;;;;;;;;;;;;;;;;5132446;27;1980;-56
2022/10/07 12:26:48;;;;;;;;;;;;;;;;;;5132649;27;1768;-57
2022/10/07 12:29:21;;;;;;;;;;;;;;;;;;5132715;27;1625;-52
2022/10/07 12:31:49;;;;;;;;;;;;;;;;;;5132204;27;1934;-49
2022/10/07 12:34:21;;;;;;;;;;;;;;;;;;5132595;27;2217;-53
2022/10/07 12:36:50;;;;;;;;;;;;;;;;;;5132257;27;1577;-47
2022/10/07 12:39:18;;;;;;;;;;;;;;;;;;5132481;27;1962;-55
2022/10/07 12:41:45;;;;;;;;;;;;;;;;;;5132357;27;1760;-55
2022/10/07 12:44:25;;;;;;;;;;;;;;;;;;5113028;28;1814;-53
2022/10/07 12:47:04;;;;;;;;;;;;;;;;;;5113936;28;1993;-47
2022/10/07 12:49:43;;;;;;;;;;;;;;;;;;5131844;27;2117;-57
2022/10/07 12:52:21;;;;;;;;;;;;;;;;;;5131837;28;2026;-53
2022/10/07 12:55:09;;;;;;;;;;;;;;;;;;5131908;27;2126;-50
2022/10/07 12:57:38;;;;;;;;;;;;;;;;;;5131627;28;1922;-50
2022/10/07 13:00:16;;;;;;;;;;;;;;;;;;5132152;28;1996;-59
2022/10/07 13:02:43;;;;;;;;;;;;;;;;;;5131921;28;2022;-49
2022/10/07 13:05:33;;;;;;;;;;;;;;;;;;5132100;28;2147;-52
2022/10/07 13:08:07;;;;;;;;;;;;;;;;;;5131540;28;2127;-56
2022/10/07 13:11:00;;;;;;;;;;;;;;;;;;5131793;28;2115;-58
2022/10/07 13:13:33;;;;;;;;;;;;;;;;;;5093618;28;1907;-54
2022/10/07 13:16:09;;;;;;;;;;;;;;;;;;5131907;28;2104;-55
2022/10/07 13:18:37;;;;;;;;;;;;;;;;;;5132021;28;1979;-57
2022/10/07 13:21:23;;;;;;;;;;;;;;;;;;5131737;28;2126;-48
2022/10/07 13:23:51;;;;;;;;;;;;;;;;;;5131671;28;2167;-57
2022/10/07 13:26:20;;;;;;;;;;;;;;;;;;5131962;28;2082;-50
2022/10/07 13:28:50;;;;;;;;;;;;;;;;;;5131909;28;1528;-47
2022/10/07 13:31:19;;;;;;;;;;;;;;;;;;5131910;28;2143;-57
2022/10/07 13:33:48;;;;;;;;;;;;;;;;;;5131935;28;1601;-53
2022/10/07 13:36:15;;;;;;;;;;;;;;;;;;5131601;28;1810;-58
2022/10/07 13:38:45;;;;;;;;;;;;;;;;;;5131678;28;2146;-57
2022/10/07 13:41:26;;;;;;;;;;;;;;;;;;5131550;28;2302;-48
2022/10/07 13:44:02;;;;;;;;;;;;;;;;;;5111090;28;1736;-46
2022/10/07 13:46:31;;;;;;;;;;;;;;;;;;5110935;28;2023;-56
2022/10/07 13:49:00;;;;;;;;;;;;;;;;;;5111206;28;1843;-58
2022/10/07 13:51:35;;;;;;;;;;;;;;;;;;5110797;28;2039;-47
2022/10/07 13:54:03;;;;;;;;;;;;;;;;;;5110841;28;2105;-56
2022/10/07 13:56:34;;;;;;;;;;;;;;;;;;5110911;28;1936;-52
2022/10/07 13:59:03;;;;;;;;;;;;;;;;;;5110809;28;1909;-51
2022/10/07 14:01:31;;;;;;;;;;;;;;;;;;5110727;28;1431;-55
2022/10/07 14:03:59;;;;;;;;;;;;;;;;;;5110877;28;1805;-58
2022/10/07 14:06:45;;;;;;;;;;;;;;;;;;5110937;28;1825;-53
2022/10/07 14:09:32;;;;;;;;;;;;;;;;;;5114428;28;1909;-54
2022/10/07 14:12:02;;;;;;;;;;;;;;;;;;5114339;28;2000;-58
2022/10/07 14:14:32;;;;;;;;;;;;;;;;;;5114492;28;2168;-57
2022/10/07 14:17:00;;;;;;;;;;;;;;;;;;5114288;28;2295;-48
2022/10/07 14:19:31;;;;;;;;;;;;;;;;;;5114238;28;1803;-50
2022/10/07 14:22:01;;;;;;;;;;;;;;;;;;5114120;28;2019;-48
2022/10/07 14:24:29;;;;;;;;;;;;;;;;;;5114147;28;2153;-52
2022/10/07 14:26:59;;;;;;;;;;;;;;;;;;5114197;28;1912;-55
2022/10/07 14:29:26;;;;;;;;;;;;;;;;;;5113951;28;1908;-57
2022/10/07 14:35:18;;;;;;;;;;;;;;;;;;5107796;28;1646;-48
2022/10/07 14:37:46;;;;;;;;;;;;;;;;;;5113967;28;2041;-52
2022/10/07 14:40:22;;;;;;;;;;;;;;;;;;5114256;28;2225;-55
2022/10/07 14:42:53;;;;;;;;;;;;;;;;;;5125735;27;1996;-53
2022/10/07 14:45:23;;;;;;;;;;;;;;;;;;5134345;27;1782;-53
2022/10/07 14:47:51;;;;;;;;;;;;;;;;;;5134247;27;2120;-52
2022/10/07 14:50:18;;;;;;;;;;;;;;;;;;5134598;27;2185;-49
2022/10/07 14:52:50;;;;;;;;;;;;;;;;;;5134239;27;1983;-59
2022/10/07 14:55:23;;;;;;;;;;;;;;;;;;5134307;27;1808;-49
2022/10/07 14:57:51;;;;;;;;;;;;;;;;;;5134212;27;2110;-54
2022/10/07 15:00:20;;;;;;;;;;;;;;;;;;5134205;27;1958;-58
2022/10/07 15:02:52;;;;;;;;;;;;;;;;;;5134205;27;2012;-52
2022/10/07 15:05:21;;;;;;;;;;;;;;;;;;5133931;27;2017;-51
2022/10/07 15:07:49;;;;;;;;;;;;;;;;;;5133946;27;1820;-53
2022/10/07 15:10:22;;;;;;;;;;;;;;;;;;5134090;27;2161;-57
2022/10/07 15:12:50;;;;;;;;;;;;;;;;;;5133634;27;1903;-46
2022/10/07 15:15:17;;;;;;;;;;;;;;;;;;5133758;27;1591;-55
2022/10/07 15:17:45;;;;;;;;;;;;;;;;;;5124124;27;1743;-58
2022/10/07 15:20:13;;;;;;;;;;;;;;;;;;5113229;28;1792;-52
2022/10/07 15:22:41;;;;;;;;;;;;;;;;;;5112995;28;2082;-55
2022/10/07 15:25:09;;;;;;;;;;;;;;;;;;5113066;28;2005;-58
2022/10/07 15:27:37;;;;;;;;;;;;;;;;;;5112923;28;1843;-49
2022/10/07 15:30:05;;;;;;;;;;;;;;;;;;5112597;28;2006;-58
2022/10/07 15:32:33;;;;;;;;;;;;;;;;;;5112609;28;2042;-57
2022/10/07 15:35:01;;;;;;;;;;;;;;;;;;5112606;28;2004;-55
2022/10/07 15:37:28;;;;;;;;;;;;;;;;;;5112565;28;2115;-48
2022/10/07 15:39:57;;;;;;;;;;;;;;;;;;5094422;28;2118;-57
2022/10/07 15:42:26;;;;;;;;;;;;;;;;;;5121280;27;2289;-58
2022/10/07 15:44:53;;;;;;;;;;;;;;;;;;5133223;27;2015;-56
2022/10/07 15:47:21;;;;;;;;;;;;;;;;;;5114442;27;2272;-54
2022/10/07 15:49:48;;;;;;;;;;;;;;;;;;5133339;27;1930;-52
2022/10/07 15:52:16;;;;;;;;;;;;;;;;;;5132895;27;2144;-58
2022/10/07 15:54:45;;;;;;;;;;;;;;;;;;5132919;27;1747;-58
2022/10/07 15:57:13;;;;;;;;;;;;;;;;;;5132936;27;1829;-58
2022/10/07 15:59:41;;;;;;;;;;;;;;;;;;5132733;27;1988;-57
2022/10/07 16:02:12;;;;;;;;;;;;;;;;;;5132583;27;1764;-58
2022/10/07 16:04:41;;;;;;;;;;;;;;;;;;5114752;27;1854;-55
2022/10/07 16:07:10;;;;;;;;;;;;;;;;;;5132282;27;2005;-50
2022/10/07 16:09:38;;;;;;;;;;;;;;;;;;5128343;27;2105;-57
2022/10/07 16:12:05;;;;;;;;;;;;;;;;;;5114666;27;2066;-49
2022/10/07 16:14:33;;;;;;;;;;;;;;;;;;5112014;28;1800;-57
2022/10/07 16:17:00;;;;;;;;;;;;;;;;;;5112079;28;1547;-47
2022/10/07 16:19:27;;;;;;;;;;;;;;;;;;5093321;28;2511;-51
2022/10/07 16:21:55;;;;;;;;;;;;;;;;;;5093789;28;2134;-51
2022/10/07 16:24:22;;;;;;;;;;;;;;;;;;5111871;28;2018;-49
2022/10/07 16:26:50;;;;;;;;;;;;;;;;;;5111955;28;1855;-47
2022/10/07 16:32:05;;;;;;;;;;;;;;;;;;5111730;28;1984;-57
2022/10/07 16:34:33;;;;;;;;;;;;;;;;;;5111787;28;1848;-58
2022/10/07 16:37:00;;;;;;;;;;;;;;;;;;5111747;28;1973;-58
2022/10/07 16:39:27;;;;;;;;;;;;;;;;;;5111471;28;2110;-57
2022/10/07 16:41:55;;;;;;;;;;;;;;;;;;5115938;27;2001;-46
2022/10/07 16:44:23;;;;;;;;;;;;;;;;;;5132110;27;2176;-57
2022/10/07 16:46:55;;;;;;;;;;;;;;;;;;5132041;27;1755;-47
2022/10/07 16:49:28;;;;;;;;;;;;;;;;;;5131119;27;1832;-53
2022/10/07 16:51:56;;;;;;;;;;;;;;;;;;5112963;28;2206;-57
2022/10/07 16:54:23;;;;;;;;;;;;;;;;;;5131553;28;1752;-57
2022/10/07 16:56:51;;;;;;;;;;;;;;;;;;5132218;28;1663;-49
2022/10/07 16:59:21;;;;;;;;;;;;;;;;;;5132135;28;1802;-56
2022/10/07 17:01:50;;;;;;;;;;;;;;;;;;5132275;28;2143;-51
2022/10/07 17:04:18;;;;;;;;;;;;;;;;;;5132224;28;2004;-54
2022/10/07 17:06:47;;;;;;;;;;;;;;;;;;5131989;28;1877;-56
2022/10/07 17:09:17;;;;;;;;;;;;;;;;;;5132107;28;1428;-57
2022/10/07 17:11:44;;;;;;;;;;;;;;;;;;5131670;28;1915;-58
2022/10/07 17:14:16;;;;;;;;;;;;;;;;;;5132028;28;2072;-50
2022/10/07 17:16:45;;;;;;;;;;;;;;;;;;5131516;28;2043;-56
2022/10/07 17:19:13;;;;;;;;;;;;;;;;;;5131705;28;2188;-57
2022/10/07 17:21:41;;;;;;;;;;;;;;;;;;5131785;28;1582;-57
2022/10/07 17:24:08;;;;;;;;;;;;;;;;;;5131775;28;2014;-58
2022/10/07 17:26:36;;;;;;;;;;;;;;;;;;5131744;28;2083;-53
2022/10/07 17:29:06;;;;;;;;;;;;;;;;;;5131734;28;1979;-50
2022/10/07 17:31:34;;;;;;;;;;;;;;;;;;5131620;28;1909;-48
2022/10/07 17:34:04;;;;;;;;;;;;;;;;;;5131654;28;1719;-48
2022/10/07 17:36:31;;;;;;;;;;;;;;;;;;5131746;28;1764;-46
2022/10/07 17:38:59;;;;;;;;;;;;;;;;;;5131725;28;2012;-48
2022/10/07 17:41:28;;;;;;;;;;;;;;;;;;5115538;28;1917;-51
2022/10/07 17:43:56;;;;;;;;;;;;;;;;;;5135446;27;1690;-45